Time;durP1;ratioP1;P1;durP2;ratioP2;P2;SDS_P1;SDS_P2;PMS_P1;PMS_P2;Temp;Humidity;BMP_temperature;BMP_pressure;BME280_temperature;BME280_humidity;BME280_pressure;Samples;Min_cycle;Max_cycle;Signal;HPM_P1;HPM_P2
2021/03/26 00:01:31;;;;;;;57.55;30.70;;;;;;;-1.48;72.30;100835.11;1755329;80;21475;-74
2021/03/26 00:04:02;;;;;;;47.83;26.90;;;;;;;-1.49;72.28;100846.09;1752241;80;21187;-73
2021/03/26 00:06:32;;;;;;;48.30;27.15;;;;;;;-1.50;72.13;100847.58;1749926;80;21556;-74
2021/03/26 00:09:00;;;;;;;54.18;29.05;;;;;;;-1.53;72.21;100846.11;1713045;81;21213;-74
2021/03/26 00:11:30;;;;;;;49.18;27.67;;;;;;;-1.54;72.28;100843.18;1704677;81;21215;-73
2021/03/26 00:13:58;;;;;;;65.32;32.88;;;;;;;-1.54;72.25;100843.18;1752372;80;21572;-73
2021/03/26 00:16:27;;;;;;;61.55;35.03;;;;;;;-1.53;72.16;100843.98;1753433;81;21218;-73
2021/03/26 00:18:56;;;;;;;62.83;32.53;;;;;;;-1.55;72.17;100844.14;1755265;81;21326;-74
2021/03/26 00:21:24;;;;;;;62.23;31.68;;;;;;;-1.59;72.01;100840.24;1751084;80;21488;-73
2021/03/26 00:23:53;;;;;;;64.77;34.30;;;;;;;-1.59;72.01;100840.24;1751112;80;22004;-73
2021/03/26 00:26:22;;;;;;;70.65;35.48;;;;;;;-1.57;72.25;100844.83;1740232;81;21628;-75
2021/03/26 00:28:52;;;;;;;68.47;34.98;;;;;;;-1.54;72.22;100846.30;1726423;81;21659;-74
2021/03/26 00:31:20;;;;;;;62.03;32.60;;;;;;;-1.53;72.12;100843.48;1745257;81;21179;-73
2021/03/26 00:33:48;;;;;;;54.63;30.52;;;;;;;-1.49;72.00;100838.73;1750199;80;22159;-74
2021/03/26 00:36:18;;;;;;;54.15;27.75;;;;;;;-1.44;72.05;100844.28;1707783;81;21575;-74
2021/03/26 00:38:47;;;;;;;53.00;28.35;;;;;;;-1.40;72.09;100833.77;1755756;81;21124;-73
2021/03/26 00:41:16;;;;;;;56.28;29.18;;;;;;;-1.35;72.10;100839.80;1756253;81;21176;-73
2021/03/26 00:43:44;;;;;;;59.75;30.37;;;;;;;-1.34;72.13;100837.02;1755634;80;21191;-73
2021/03/26 00:46:12;;;;;;;55.35;29.87;;;;;;;-1.32;72.15;100836.83;1754180;81;21389;-75
2021/03/26 00:48:42;;;;;;;60.25;30.50;;;;;;;-1.31;72.15;100838.48;1754486;80;21500;-73
2021/03/26 00:51:11;;;;;;;60.00;31.73;;;;;;;-1.31;72.14;100835.38;1754907;80;21061;-75
2021/03/26 00:53:40;;;;;;;55.35;29.25;;;;;;;-1.32;72.05;100843.39;1751850;80;21136;-74
2021/03/26 00:56:08;;;;;;;55.28;29.57;;;;;;;-1.32;72.05;100843.39;1755406;80;21088;-75
2021/03/26 00:58:37;;;;;;;55.23;29.00;;;;;;;-1.34;72.29;100842.77;1757177;80;21148;-74
2021/03/26 01:01:06;;;;;;;52.98;28.77;;;;;;;-1.34;72.29;100842.77;1735945;81;21218;-74
2021/03/26 01:03:34;;;;;;;55.58;29.50;;;;;;;-1.34;72.56;100845.38;1751556;80;21688;-74
2021/03/26 01:06:06;;;;;;;55.70;29.10;;;;;;;-1.36;72.67;100852.09;1763318;80;21152;-75
2021/03/26 01:08:36;;;;;;;49.13;27.87;;;;;;;-1.38;72.87;100841.45;1754516;80;21111;-74
2021/03/26 01:11:15;;;;;;;55.10;30.52;;;;;;;-1.39;73.09;100845.88;1724741;81;21633;-73
2021/03/26 01:13:46;;;;;;;59.18;29.80;;;;;;;-1.44;73.25;100850.83;1747913;80;21207;-74
2021/03/26 01:16:17;;;;;;;56.00;30.25;;;;;;;-1.49;73.40;100850.52;1712360;81;21650;-74
2021/03/26 01:18:49;;;;;;;62.30;32.05;;;;;;;-1.51;73.55;100851.20;1741442;81;21132;-74
2021/03/26 01:21:22;;;;;;;57.13;31.57;;;;;;;-1.53;73.66;100846.11;1728149;81;21144;-73
2021/03/26 01:23:51;;;;;;;59.75;33.15;;;;;;;-1.55;73.70;100852.00;1732788;81;21348;-73
2021/03/26 01:26:20;;;;;;;56.63;31.60;;;;;;;-1.55;73.71;100850.69;1751765;80;21496;-73
2021/03/26 01:28:52;;;;;;;68.00;36.10;;;;;;;-1.58;73.51;100849.75;1723457;81;21325;-73
2021/03/26 01:31:21;;;;;;;66.15;34.95;;;;;;;-1.58;73.51;100849.75;1745415;80;21607;-72
2021/03/26 01:33:50;;;;;;;61.45;31.42;;;;;;;-1.57;73.79;100852.69;1721848;81;21156;-73
2021/03/26 01:36:19;;;;;;;64.17;33.95;;;;;;;-1.57;73.86;100859.23;1756260;80;21628;-73
2021/03/26 01:38:48;;;;;;;74.77;37.63;;;;;;;-1.59;73.93;100855.95;1757428;80;21076;-73
2021/03/26 01:41:25;;;;;;;69.53;36.42;;;;;;;-1.58;73.93;100856.77;1753536;80;21160;-74
2021/03/26 01:43:53;;;;;;;83.80;40.43;;;;;;;-1.61;73.87;100857.11;1749715;80;21195;-75
2021/03/26 01:46:23;;;;;;;88.90;41.10;;;;;;;-1.64;73.67;100863.52;1753425;80;21172;-74
2021/03/26 01:48:56;;;;;;;80.25;39.92;;;;;;;-1.66;73.39;100861.55;1724805;83;21165;-74
2021/03/26 01:51:29;;;;;;;80.12;40.15;;;;;;;-1.65;73.00;100863.17;1746167;81;21527;-74
2021/03/26 01:53:58;;;;;;;73.90;37.50;;;;;;;-1.64;72.52;100863.52;1749764;80;21194;-74
2021/03/26 01:56:26;;;;;;;68.05;37.00;;;;;;;-1.60;72.00;100869.23;1719431;81;22513;-73
2021/03/26 01:58:57;;;;;;;75.67;37.33;;;;;;;-1.57;71.45;100872.83;1749397;80;21123;-74
2021/03/26 02:01:37;;;;;;;71.30;37.53;;;;;;;-1.57;71.02;100871.52;1723614;81;21406;-74
2021/03/26 02:04:06;;;;;;;71.30;36.25;;;;;;;-1.55;70.61;100869.53;1714451;81;21525;-74
2021/03/26 02:06:40;;;;;;;70.50;37.58;;;;;;;-1.52;70.15;100871.81;1695909;81;21198;-73
2021/03/26 02:09:15;;;;;;;70.67;37.70;;;;;;;-1.49;69.73;100870.97;1745054;80;21224;-73
2021/03/26 02:12:08;;;;;;;68.35;35.03;;;;;;;-1.47;69.49;100868.20;1734082;80;21136;-72
2021/03/26 02:14:45;;;;;;;82.62;36.08;;;;;;;-1.46;69.37;100869.33;1730319;81;21356;-75
2021/03/26 02:17:16;;;;;;;72.60;36.17;;;;;;;-1.44;69.13;100873.10;1750718;80;21515;-74
2021/03/26 02:20:27;;;;;;;71.30;37.83;;;;;;;-1.39;69.11;100873.39;1829763;77;22032;-74
2021/03/26 02:23:08;;;;;;;73.02;37.28;;;;;;;-1.46;69.37;100873.75;1795298;79;21194;-75
2021/03/26 02:25:44;;;;;;;72.47;35.77;;;;;;;-1.39;69.76;100878.63;1802221;79;22863;-73
2021/03/26 02:28:14;;;;;;;67.53;35.00;;;;;;;-1.43;69.98;100876.03;1773139;80;21111;-74
2021/03/26 02:30:48;;;;;;;77.72;36.95;;;;;;;-1.39;69.92;100880.44;1760769;81;21196;-75
2021/03/26 02:33:16;;;;;;;83.22;40.33;;;;;;;-1.39;69.78;100873.39;1777762;79;21208;-73
2021/03/26 02:35:50;;;;;;;79.12;38.95;;;;;;;-1.35;69.66;100877.79;1773557;79;21653;-73
2021/03/26 02:38:32;;;;;;;78.17;38.95;;;;;;;-1.37;69.59;100871.42;1769975;80;21136;-74
2021/03/26 02:41:45;;;;;;;75.97;37.63;;;;;;;-1.36;69.58;100875.67;1817364;77;22718;-73
2021/03/26 02:44:27;;;;;;;72.20;34.27;;;;;;;-1.39;69.54;100874.70;1768960;79;21268;-74
2021/03/26 02:47:15;;;;;;;73.78;35.13;;;;;;;-1.39;69.40;100872.58;1775115;80;21449;-74
2021/03/26 02:49:54;;;;;;;66.97;33.50;;;;;;;-1.37;69.22;100870.61;1804466;79;21167;-73
2021/03/26 02:52:46;;;;;;;76.72;36.53;;;;;;;-1.36;68.96;100871.73;1801443;79;21563;-73
2021/03/26 02:55:24;;;;;;;75.30;38.13;;;;;;;-1.35;68.66;100876.02;1789303;79;21149;-74
2021/03/26 02:58:03;;;;;;;90.85;43.33;;;;;;;-1.35;68.50;100875.17;1792217;79;21576;-74
2021/03/26 03:00:46;;;;;;;88.80;42.78;;;;;;;-1.37;68.60;100877.16;1814142;79;22272;-74
2021/03/26 03:03:21;;;;;;;85.53;43.55;;;;;;;-1.47;68.84;100878.18;1784737;80;21085;-75
2021/03/26 03:06:03;;;;;;;83.45;40.45;;;;;;;-1.52;69.06;100878.36;1765342;79;21152;-74
2021/03/26 03:08:42;;;;;;;77.87;40.40;;;;;;;-1.51;68.93;100882.63;1819177;77;22663;-74
2021/03/26 03:11:32;;;;;;;84.10;42.78;;;;;;;-1.58;68.77;100884.27;1816770;78;21065;-74
2021/03/26 03:14:34;;;;;;;87.00;43.00;;;;;;;-1.60;68.97;100886.27;1783265;79;21396;-74
2021/03/26 03:17:13;;;;;;;81.53;43.33;;;;;;;-1.58;69.29;100884.27;1790040;79;21439;-75
2021/03/26 03:20:12;;;;;;;89.52;45.05;;;;;;;-1.60;69.69;100888.88;1785646;79;21579;-74
2021/03/26 03:22:56;;;;;;;80.45;41.83;;;;;;;-1.57;70.07;100891.16;1789701;77;21202;-74
2021/03/26 03:25:26;;;;;;;86.28;42.40;;;;;;;-1.55;70.28;100897.84;1750896;79;21178;-74
2021/03/26 03:28:07;;;;;;;71.55;35.73;;;;;;;-1.55;70.39;100901.77;1802012;79;21361;-75
2021/03/26 03:30:41;;;;;;;67.58;34.65;;;;;;;-1.53;70.28;100897.19;1782890;79;21024;-75
2021/03/26 03:33:33;;;;;;;66.67;33.15;;;;;;;-1.53;69.86;100902.93;1787017;79;21163;-74
2021/03/26 03:36:11;;;;;;;65.52;33.08;;;;;;;-1.53;69.23;100908.17;1802120;79;21131;-73
2021/03/26 03:39:03;;;;;;;54.60;30.85;;;;;;;-1.51;68.75;100904.90;1804236;79;21076;-74
2021/03/26 03:42:07;;;;;;;58.30;31.00;;;;;;;-1.45;68.23;100901.11;1809882;79;22782;-74
2021/03/26 03:45:02;;;;;;;61.65;33.45;;;;;;;-1.47;67.98;100904.87;1779999;80;21576;-74
2021/03/26 03:47:42;;;;;;;64.53;34.83;;;;;;;-1.46;67.85;100911.73;1771022;80;21373;-74
2021/03/26 03:50:32;;;;;;;58.10;30.05;;;;;;;-1.45;67.86;100909.44;1757178;80;21124;-74
2021/03/26 03:53:20;;;;;;;58.28;30.12;;;;;;;-1.46;67.72;100909.94;1759560;80;21169;-74
2021/03/26 03:56:43;;;;;;;59.15;31.12;;;;;;;-1.44;67.48;100913.21;1779695;80;21169;-73
2021/03/26 03:59:22;;;;;;;49.33;27.27;;;;;;;-1.41;67.14;100914.69;1773333;80;21061;-73
2021/03/26 04:02:22;;;;;;;59.43;29.70;;;;;;;-1.34;66.46;100908.27;1758453;79;22908;-75
2021/03/26 04:05:08;;;;;;;50.48;27.50;;;;;;;-1.36;66.04;100913.66;1722318;82;21610;-73
2021/03/26 04:08:03;;;;;;;43.10;23.18;;;;;;;-1.34;65.61;100916.94;1747378;81;21371;-73
2021/03/26 04:10:38;;;;;;;46.55;26.48;;;;;;;-1.29;65.21;100921.16;1755838;80;21185;-74
2021/03/26 04:13:11;;;;;;;49.05;24.23;;;;;;;-1.25;64.79;100921.64;1745563;82;21152;-73
2021/03/26 04:15:48;;;;;;;50.50;25.75;;;;;;;-1.23;64.35;100921.80;1746258;82;21597;-73
2021/03/26 04:18:45;;;;;;;46.55;24.37;;;;;;;-1.15;64.04;100924.05;1727517;82;21186;-72
2021/03/26 04:21:21;;;;;;;44.48;24.98;;;;;;;-1.03;63.55;100930.55;1739053;82;21162;-73
2021/03/26 04:24:21;;;;;;;50.13;26.60;;;;;;;-0.98;63.52;100921.20;1824656;76;22680;-74
2021/03/26 04:27:19;;;;;;;49.35;25.97;;;;;;;-0.97;63.68;100932.49;1779947;80;21243;-73
2021/03/26 04:30:04;;;;;;;48.27;25.50;;;;;;;-0.86;63.56;100918.98;1833412;77;23343;-74
2021/03/26 04:32:34;;;;;;;43.40;25.15;;;;;;;-0.84;63.41;100922.26;1806984;78;21171;-73
2021/03/26 04:35:05;;;;;;;42.20;24.10;;;;;;;-0.76;63.17;100924.84;1814422;78;21615;-74
2021/03/26 04:38:07;;;;;;;44.23;23.98;;;;;;;-0.67;62.89;100928.72;1787042;78;21242;-74
2021/03/26 04:40:47;;;;;;;51.13;24.63;;;;;;;-0.59;62.59;100931.27;1853131;77;21207;-74
2021/03/26 04:43:34;;;;;;;43.68;25.12;;;;;;;-0.53;62.25;100927.95;1815557;77;21128;-73
2021/03/26 04:46:32;;;;;;;47.05;25.08;;;;;;;-0.45;62.12;100936.28;1823645;77;21072;-72
2021/03/26 04:49:18;;;;;;;53.25;26.52;;;;;;;-0.38;62.12;100935.40;1659798;85;21218;-74
2021/03/26 04:52:14;;;;;;;51.70;28.80;;;;;;;-0.33;62.17;100939.64;1687740;84;21256;-74
2021/03/26 04:55:15;;;;;;;51.00;26.80;;;;;;;-0.22;62.24;100939.70;1821429;77;22738;-73
2021/03/26 04:58:13;;;;;;;50.67;26.73;;;;;;;-0.26;62.16;100943.19;1781440;78;21117;-73
2021/03/26 05:01:05;;;;;;;50.27;27.53;;;;;;;-0.18;62.32;100942.80;1809228;77;22649;-73
2021/03/26 05:03:40;;;;;;;48.48;28.75;;;;;;;-0.22;62.30;100950.20;1764035;80;21116;-72
2021/03/26 05:06:27;;;;;;;48.55;26.62;;;;;;;-0.16;62.45;100954.76;1731215;80;21392;-74
2021/03/26 05:08:59;;;;;;;47.62;25.08;;;;;;;-0.06;62.37;100951.39;1771272;78;21770;-74
2021/03/26 05:11:34;;;;;;;43.92;25.48;;;;;;;0.09;61.77;100954.03;1777568;78;21125;-73
2021/03/26 05:14:07;;;;;;;47.05;26.02;;;;;;;0.23;61.24;100948.00;1723208;83;21587;-73
2021/03/26 05:16:48;;;;;;;48.45;25.95;;;;;;;0.39;60.76;100952.76;1695231;83;21170;-73
2021/03/26 05:20:07;;;;;;;47.97;25.80;;;;;;;0.62;60.24;100957.93;1836973;77;22977;-73
2021/03/26 05:22:46;;;;;;;42.20;23.65;;;;;;;0.67;59.95;100957.71;1769688;78;20954;-74
2021/03/26 05:25:27;;;;;;;45.95;26.30;;;;;;;0.85;59.63;100955.20;1849970;77;21186;-73
2021/03/26 05:28:10;;;;;;;47.27;24.83;;;;;;;1.04;59.42;100956.45;1819074;77;22160;-74
2021/03/26 05:30:41;;;;;;;40.52;23.30;;;;;;;1.11;59.01;100959.97;1793778;79;21171;-73
2021/03/26 05:33:37;;;;;;;48.75;25.70;;;;;;;1.23;58.83;100962.44;1783729;79;21370;-74
2021/03/26 05:36:24;;;;;;;38.35;23.60;;;;;;;1.34;58.72;100968.52;1780535;79;21132;-73
2021/03/26 05:39:14;;;;;;;42.58;23.73;;;;;;;1.47;58.43;100963.91;1789864;79;21113;-73
2021/03/26 05:42:28;;;;;;;37.28;21.50;;;;;;;1.60;58.17;100967.98;1795150;79;21147;-75
2021/03/26 05:45:42;;;;;;;36.65;20.90;;;;;;;1.71;57.90;100972.44;1789758;79;21559;-74
2021/03/26 05:49:08;;;;;;;34.23;19.27;;;;;;;1.92;57.17;100963.73;1840262;77;22680;-74
2021/03/26 05:52:00;;;;;;;35.63;21.65;;;;;;;1.98;56.52;100972.19;1800164;78;21201;-73
2021/03/26 05:54:50;;;;;;;35.13;21.85;;;;;;;2.10;55.54;100970.65;1834902;77;22298;-72
2021/03/26 05:57:31;;;;;;;35.48;22.20;;;;;;;2.22;55.03;100966.49;1852884;77;21647;-73
2021/03/26 06:00:24;;;;;;;;;;;;;;;2.33;54.39;100969.91;1844332;77;21199;-73
2021/03/26 06:03:12;;;;;;;37.00;20.95;;;;;;;2.42;54.33;100966.63;1836679;77;20246;-73
2021/03/26 06:06:34;;;;;;;32.93;20.37;;;;;;;2.55;54.42;100971.17;1776200;79;21635;-73
2021/03/26 06:09:46;;;;;;;31.30;18.90;;;;;;;2.68;54.09;100969.12;1772323;80;21454;-72
2021/03/26 06:13:15;;;;;;;31.95;17.42;;;;;;;2.82;53.83;100971.62;1811357;78;21180;-73
2021/03/26 06:16:31;;;;;;;34.67;18.87;;;;;;;2.99;53.82;100971.28;1824873;78;21005;-71
2021/03/26 06:19:56;;;;;;;31.63;17.17;;;;;;;3.24;53.71;100964.99;1820710;77;22751;-73
2021/03/26 06:23:09;;;;;;;21.35;11.90;;;;;;;3.33;53.45;100972.24;1807831;79;21055;-74
2021/03/26 06:26:24;;;;;;;22.60;13.87;;;;;;;3.57;52.02;100974.31;1826614;77;27841;-73
2021/03/26 06:29:08;;;;;;;21.73;12.18;;;;;;;3.68;51.06;100965.79;1799696;79;21155;-73
2021/03/26 06:32:16;;;;;;;23.98;12.25;;;;;;;3.83;50.19;100967.45;1811698;79;25886;-74
2021/03/26 06:35:21;;;;;;;25.43;13.08;;;;;;;3.93;50.11;100972.63;1796754;79;21135;-72
2021/03/26 06:38:12;;;;;;;23.83;13.35;;;;;;;4.09;49.87;100966.65;1814767;79;21048;-74
2021/03/26 06:41:13;;;;;;;23.40;13.38;;;;;;;4.24;49.77;100976.48;1803076;79;21554;-73
2021/03/26 06:44:21;;;;;;;29.02;13.85;;;;;;;4.36;49.68;100967.43;1786449;79;21180;-74
2021/03/26 06:47:30;;;;;;;23.92;12.28;;;;;;;4.52;49.72;100966.19;1785260;79;21139;-73
2021/03/26 06:50:32;;;;;;;27.25;13.90;;;;;;;4.66;48.81;100966.45;1798819;79;21618;-73
2021/03/26 06:53:45;;;;;;;23.45;12.90;;;;;;;4.79;48.18;100966.92;1799010;79;21162;-74
2021/03/26 06:57:06;;;;;;;25.62;13.70;;;;;;;4.87;48.12;100962.23;1786863;79;21206;-74
2021/03/26 07:00:09;;;;;;;20.48;11.55;;;;;;;4.98;47.64;100965.24;1716931;81;21646;-73
2021/03/26 07:03:30;;;;;;;27.50;14.60;;;;;;;5.08;47.62;100956.34;1717327;83;21140;-74
2021/03/26 07:06:43;;;;;;;28.17;13.97;;;;;;;5.28;47.15;100962.34;1814173;79;22838;-73
2021/03/26 07:09:43;;;;;;;27.62;13.70;;;;;;;5.32;47.20;100960.89;1756475;80;21185;-74
2021/03/26 07:12:41;;;;;;;28.35;13.45;;;;;;;5.46;47.05;100961.63;1669015;84;22264;-75
2021/03/26 07:15:28;;;;;;;24.95;11.80;;;;;;;5.62;46.44;100954.48;1645415;86;21119;-74
2021/03/26 07:18:39;;;;;;;24.85;12.05;;;;;;;5.75;45.90;100954.91;1641428;86;21178;-74
2021/03/26 07:21:45;;;;;;;26.05;13.00;;;;;;;5.90;45.43;100961.76;1667659;85;21217;-74
2021/03/26 07:24:56;;;;;;;28.90;13.62;;;;;;;6.02;44.83;100961.36;1668180;85;21645;-73
2021/03/26 07:27:45;;;;;;;23.00;12.30;;;;;;;6.12;44.88;100967.02;1687977;84;21392;-74
2021/03/26 07:31:09;;;;;;;26.65;13.00;;;;;;;6.24;44.79;100965.25;1674646;84;21671;-73
2021/03/26 07:34:03;;;;;;;26.48;12.47;;;;;;;6.39;44.77;100968.10;1672782;85;21615;-74
2021/03/26 07:37:25;;;;;;;25.75;13.20;;;;;;;6.56;44.44;100971.80;1673792;84;21139;-75
2021/03/26 07:40:32;;;;;;;25.82;11.88;;;;;;;6.71;43.97;100973.59;1659348;85;21698;-73
2021/03/26 07:43:29;;;;;;;22.22;11.90;;;;;;;6.87;43.30;100969.51;1673893;85;22300;-74
2021/03/26 07:46:34;;;;;;;24.47;12.60;;;;;;;7.00;42.77;100981.83;1680616;84;21136;-73
2021/03/26 07:49:29;;;;;;;27.90;13.72;;;;;;;7.09;42.59;100976.51;1639022;85;21575;-75
2021/03/26 07:52:46;;;;;;;22.32;11.60;;;;;;;7.21;42.12;100976.05;1673286;85;21171;-74
2021/03/26 07:55:46;;;;;;;22.95;10.95;;;;;;;7.31;42.06;100970.20;1654812;86;21261;-74
2021/03/26 07:58:41;;;;;;;21.77;10.88;;;;;;;7.45;41.69;100980.13;1658663;84;21383;-74
2021/03/26 08:01:29;;;;;;;32.78;12.23;;;;;;;7.59;41.50;100980.75;1669698;84;21286;-74
2021/03/26 08:04:13;;;;;;;26.05;11.40;;;;;;;7.75;40.77;100980.91;1646068;85;21171;-74
2021/03/26 08:07:04;;;;;;;26.50;11.35;;;;;;;7.87;40.60;100984.13;1670326;85;21101;-73
2021/03/26 08:10:01;;;;;;;17.10;10.15;;;;;;;7.99;40.62;100983.61;1664258;85;21224;-74
2021/03/26 08:13:17;;;;;;;21.70;10.15;;;;;;;8.12;39.58;100979.41;1683932;84;21291;-74
2021/03/26 08:16:15;;;;;;;18.75;9.63;;;;;;;8.23;39.36;100983.14;1669280;84;21586;-75
2021/03/26 08:19:16;;;;;;;19.00;8.70;;;;;;;8.37;39.33;100982.39;1672180;84;21258;-76
2021/03/26 08:22:22;;;;;;;18.60;8.33;;;;;;;8.54;38.90;100977.20;1637722;85;21230;-73
2021/03/26 08:25:19;;;;;;;19.77;9.98;;;;;;;8.67;37.65;100982.28;1664526;84;21216;-74
2021/03/26 08:28:31;;;;;;;18.60;9.13;;;;;;;8.75;37.88;100987.23;1665959;84;21565;-74
2021/03/26 08:31:20;;;;;;;20.75;9.40;;;;;;;8.88;37.86;100980.84;1667163;84;21243;-76
2021/03/26 08:34:10;;;;;;;15.65;7.70;;;;;;;8.99;37.22;100993.34;1664423;85;22832;-76
2021/03/26 08:37:07;;;;;;;13.60;7.45;;;;;;;9.07;36.97;100984.16;1658023;85;21207;-74
2021/03/26 08:39:48;;;;;;;17.82;8.18;;;;;;;9.13;36.48;100985.36;1667814;84;21199;-76
2021/03/26 08:42:38;;;;;;;11.73;6.80;;;;;;;9.21;36.60;100992.16;1672163;84;21403;-74
2021/03/26 08:45:34;;;;;;;11.65;6.03;;;;;;;9.30;35.94;100987.27;1668690;85;21171;-74
2021/03/26 08:48:35;;;;;;;11.97;6.28;;;;;;;9.37;34.47;100984.74;1651171;86;21212;-75
2021/03/26 08:51:36;;;;;;;13.05;6.97;;;;;;;9.44;34.36;100989.13;1652691;84;21267;-74
2021/03/26 08:54:43;;;;;;;14.75;7.28;;;;;;;9.51;34.68;100987.95;1637154;85;21202;-74
2021/03/26 08:57:49;;;;;;;13.58;6.50;;;;;;;9.62;34.69;100991.08;1646680;85;21415;-75
2021/03/26 09:00:24;;;;;;;12.40;5.95;;;;;;;9.75;34.05;100995.83;1659125;84;21187;-72
2021/03/26 09:03:05;;;;;;;11.63;6.00;;;;;;;9.85;33.95;100989.34;1671081;84;21313;-73
2021/03/26 09:06:00;;;;;;;11.25;5.25;;;;;;;9.96;33.07;101000.98;1661152;84;21211;-73
2021/03/26 09:08:46;;;;;;;16.10;7.35;;;;;;;10.06;32.22;100993.13;1656283;84;21210;-72
2021/03/26 09:11:54;;;;;;;15.20;6.70;;;;;;;10.07;32.86;100990.23;1644165;85;21397;-74
2021/03/26 09:14:52;;;;;;;10.35;5.78;;;;;;;10.14;32.66;100981.27;1662421;84;21240;-74
2021/03/26 09:17:27;;;;;;;14.38;5.42;;;;;;;10.24;32.53;100986.23;1649661;85;21238;-74
2021/03/26 09:20:23;;;;;;;11.93;6.53;;;;;;;10.33;32.22;100999.98;1653996;84;21227;-74
2021/03/26 09:23:18;;;;;;;13.85;6.28;;;;;;;10.36;32.47;100992.02;1671687;84;21159;-73
2021/03/26 09:25:53;;;;;;;12.40;6.78;;;;;;;10.38;32.56;100989.39;1671792;85;21618;-74
2021/03/26 09:28:32;;;;;;;12.20;6.35;;;;;;;10.47;33.07;100994.61;1674049;84;21235;-73
2021/03/26 09:31:19;;;;;;;11.55;5.60;;;;;;;10.54;32.75;100990.42;1673738;85;21179;-74
2021/03/26 09:34:02;;;;;;;11.80;6.33;;;;;;;10.58;32.29;100988.07;1674287;84;21211;-72
2021/03/26 09:36:38;;;;;;;9.95;5.45;;;;;;;10.54;32.38;100987.22;1673120;84;21221;-75
2021/03/26 09:39:14;;;;;;;9.53;5.67;;;;;;;10.55;32.81;100990.16;1672857;84;21223;-74
2021/03/26 09:41:58;;;;;;;10.13;5.90;;;;;;;10.62;33.27;100987.85;1667923;84;21222;-74
2021/03/26 09:44:37;;;;;;;12.63;6.42;;;;;;;10.70;33.23;100993.59;1666436;84;21250;-74
2021/03/26 09:47:17;;;;;;;10.32;6.12;;;;;;;10.76;32.90;100997.14;1672564;84;21180;-73
2021/03/26 09:50:00;;;;;;;9.88;6.28;;;;;;;10.76;31.98;100994.47;1674448;84;21792;-73
2021/03/26 09:52:40;;;;;;;11.10;5.47;;;;;;;10.74;32.13;100994.70;1645901;85;21675;-73
2021/03/26 09:55:17;;;;;;;10.95;5.65;;;;;;;10.75;32.61;100978.14;1663646;84;21155;-73
2021/03/26 09:58:12;;;;;;;11.08;5.30;;;;;;;10.83;31.61;100989.75;1634528;87;21210;-74
2021/03/26 10:01:01;;;;;;;9.73;5.42;;;;;;;10.90;32.04;100984.22;1663606;85;21223;-74
2021/03/26 10:04:09;;;;;;;13.48;6.53;;;;;;;11.02;31.68;100992.41;1636403;84;21216;-73
2021/03/26 10:07:01;;;;;;;12.23;5.53;;;;;;;11.10;32.06;100989.00;1671300;84;22152;-73
2021/03/26 10:09:50;;;;;;;10.35;6.15;;;;;;;11.13;31.71;100985.84;1674593;84;21205;-72
2021/03/26 10:12:24;;;;;;;11.03;5.50;;;;;;;11.13;31.74;100986.64;1650814;85;21194;-72
2021/03/26 10:14:59;;;;;;;10.35;5.33;;;;;;;11.17;31.76;100985.61;1667502;84;21286;-73
2021/03/26 10:17:59;;;;;;;10.03;6.03;;;;;;;11.19;32.15;100982.17;1672310;84;21196;-73
2021/03/26 10:20:55;;;;;;;9.38;5.50;;;;;;;11.23;32.33;100984.08;1673914;84;22184;-73
2021/03/26 10:23:59;;;;;;;10.23;5.20;;;;;;;11.27;32.02;100985.72;1672241;84;21253;-73
2021/03/26 10:26:42;;;;;;;10.75;5.25;;;;;;;11.33;31.65;100979.91;1670157;84;21200;-73
2021/03/26 10:29:28;;;;;;;10.03;5.37;;;;;;;11.37;30.95;100975.66;1671805;85;21264;-72
2021/03/26 10:32:07;;;;;;;10.00;4.90;;;;;;;11.34;31.31;100980.97;1643787;84;21207;-73
2021/03/26 10:34:40;;;;;;;7.80;5.10;;;;;;;11.37;31.35;100975.13;1669206;84;21842;-75
2021/03/26 10:37:37;;;;;;;9.58;5.47;;;;;;;11.42;31.10;100985.89;1643728;85;21194;-73
2021/03/26 10:40:54;;;;;;;9.20;5.75;;;;;;;11.48;31.26;100977.36;1669105;85;21199;-73
2021/03/26 10:43:41;;;;;;;10.43;6.40;;;;;;;11.54;30.34;100992.41;1664613;84;21485;-72
2021/03/26 10:46:14;;;;;;;8.88;5.50;;;;;;;11.53;30.68;100981.98;1634684;85;21981;-73
2021/03/26 10:48:58;;;;;;;8.88;5.28;;;;;;;11.51;31.27;100969.64;1660485;84;22581;-73
2021/03/26 10:51:49;;;;;;;8.30;5.50;;;;;;;11.53;31.14;100981.98;1646615;85;21201;-74
2021/03/26 10:54:53;;;;;;;9.38;5.37;;;;;;;11.53;31.04;100973.42;1659693;84;21389;-74
2021/03/26 10:57:32;;;;;;;9.23;5.28;;;;;;;11.56;30.14;100981.47;1667464;84;21220;-73
2021/03/26 11:00:12;;;;;;;8.58;4.67;;;;;;;11.55;30.27;100969.14;1656051;84;21208;-74
2021/03/26 11:02:48;;;;;;;8.20;4.90;;;;;;;11.56;29.67;100981.47;1668833;84;21384;-73
2021/03/26 11:05:40;;;;;;;8.43;4.90;;;;;;;11.55;29.53;100980.67;1666952;84;21445;-73
2021/03/26 11:08:35;;;;;;;9.98;4.92;;;;;;;11.50;29.87;100984.62;1690190;84;21194;-74
2021/03/26 11:11:23;;;;;;;7.33;4.40;;;;;;;11.47;29.32;100987.27;1681355;84;21210;-73
2021/03/26 11:14:36;;;;;;;8.03;4.90;;;;;;;11.44;29.18;100973.05;1650854;84;21381;-73
2021/03/26 11:17:29;;;;;;;8.65;5.05;;;;;;;11.46;29.28;100980.31;1667001;84;27668;-73
2021/03/26 11:20:21;;;;;;;9.23;5.30;;;;;;;11.50;28.70;100977.94;1662705;85;21480;-73
2021/03/26 11:23:14;;;;;;;8.00;5.12;;;;;;;11.50;29.41;100979.27;1660328;84;21163;-73
2021/03/26 11:25:51;;;;;;;7.97;4.50;;;;;;;11.53;29.90;100988.66;1668000;84;21631;-73
2021/03/26 11:28:45;;;;;;;8.63;4.58;;;;;;;11.57;29.34;100986.55;1675719;85;21173;-72
2021/03/26 11:31:42;;;;;;;7.83;4.97;;;;;;;11.56;29.32;100976.13;1675211;84;23516;-71
2021/03/26 11:34:31;;;;;;;8.15;5.40;;;;;;;11.54;29.03;100988.94;1673805;85;21271;-73
2021/03/26 11:37:27;;;;;;;7.17;4.28;;;;;;;11.47;29.10;100977.09;1667628;84;21167;-74
2021/03/26 11:40:38;;;;;;;8.30;4.70;;;;;;;11.43;29.72;100971.45;1646585;85;21337;-73
2021/03/26 11:43:23;;;;;;;7.28;4.85;;;;;;;11.49;30.17;100970.44;1669966;84;21719;-73
2021/03/26 11:46:01;;;;;;;8.45;4.92;;;;;;;11.58;29.90;100969.97;1655602;84;22348;-74
2021/03/26 11:49:03;;;;;;;6.97;4.95;;;;;;;11.64;29.53;100976.98;1667153;84;21260;-72
2021/03/26 11:51:52;;;;;;;8.33;4.90;;;;;;;11.65;29.34;100962.57;1670039;84;21180;-73
2021/03/26 11:54:43;;;;;;;7.42;4.90;;;;;;;11.66;29.38;100975.68;1648577;84;21224;-74
2021/03/26 11:57:39;;;;;;;9.30;4.97;;;;;;;11.64;29.39;100962.27;1662262;84;21164;-73
2021/03/26 12:00:21;;;;;;;8.43;5.20;;;;;;;11.64;29.83;100951.03;1636738;87;21505;-74
2021/03/26 12:03:25;;;;;;;7.97;5.10;;;;;;;11.81;29.94;100950.91;1821497;76;22376;-75
2021/03/26 12:06:19;;;;;;;7.53;4.72;;;;;;;11.83;29.68;100952.81;1800999;79;21678;-74
2021/03/26 12:08:59;;;;;;;7.73;5.00;;;;;;;11.87;29.21;100955.27;1796074;79;21727;-74
2021/03/26 12:11:34;;;;;;;9.10;5.43;;;;;;;11.86;29.34;100949.66;1780540;77;21618;-73
2021/03/26 12:14:22;;;;;;;8.53;5.63;;;;;;;11.89;29.82;100958.52;1778859;79;21421;-73
2021/03/26 12:17:02;;;;;;;8.50;5.60;;;;;;;11.90;29.33;100945.93;1785295;79;21409;-72
2021/03/26 12:19:35;;;;;;;9.00;5.33;;;;;;;11.90;30.05;100961.99;1799024;79;21634;-72
2021/03/26 12:22:25;;;;;;;9.47;4.90;;;;;;;11.88;29.97;100951.55;1802551;79;21210;-73
2021/03/26 12:25:17;;;;;;;9.27;5.13;;;;;;;11.88;30.07;100948.87;1780149;77;21298;-73
2021/03/26 12:27:50;;;;;;;8.50;5.20;;;;;;;11.87;30.60;100945.11;1788483;79;21828;-73
2021/03/26 12:30:28;;;;;;;8.35;5.12;;;;;;;11.91;30.89;100943.52;1780084;79;21670;-73
2021/03/26 12:33:07;;;;;;;8.00;5.70;;;;;;;11.98;31.21;100930.75;1790404;79;21124;-72
2021/03/26 12:35:50;;;;;;;11.10;5.73;;;;;;;12.04;31.43;100946.30;1780469;77;21392;-72
2021/03/26 12:38:44;;;;;;;8.73;6.17;;;;;;;12.05;31.39;100943.38;1798093;79;21896;-74
2021/03/26 12:41:40;;;;;;;10.35;6.17;;;;;;;12.02;31.27;100939.88;1785591;79;21472;-72
2021/03/26 12:44:23;;;;;;;11.57;7.13;;;;;;;11.95;31.58;100930.72;1806634;79;21116;-75
2021/03/26 12:47:09;;;;;;;8.00;5.17;;;;;;;11.97;31.37;100943.84;1799816;79;21238;-74
2021/03/26 12:49:55;;;;;;;8.77;6.00;;;;;;;11.96;31.41;100929.66;1783988;79;21384;-75